createdAt,value
2023-01-29T00:00:32.445Z,1007.3122378479999
2023-01-29T00:01:32.442Z,1007.413829212
2023-01-29T00:02:32.423Z,1007.3122378479999
2023-01-29T00:03:32.430Z,1007.3122378479999
2023-01-29T00:04:32.444Z,1007.10905512
2023-01-29T00:05:32.425Z,1007.10905512
2023-01-29T00:06:32.430Z,1007.3122378479999
2023-01-29T00:07:32.415Z,1007.3122378479999
2023-01-29T00:08:32.519Z,1007.413829212
2023-01-29T00:09:32.447Z,1007.0074637559999
2023-01-29T00:10:32.433Z,1007.2106464839999
2023-01-29T00:11:32.411Z,1007.10905512
2023-01-29T00:12:32.435Z,1007.2106464839999
2023-01-29T00:13:32.438Z,1007.2106464839999
2023-01-29T00:14:32.417Z,1007.5154205759999
2023-01-29T00:15:32.432Z,1007.3122378479999
2023-01-29T00:16:32.487Z,1007.2106464839999
2023-01-29T00:17:32.442Z,1007.3122378479999
2023-01-29T00:18:32.414Z,1007.0074637559999
2023-01-29T00:19:32.444Z,1007.0074637559999
2023-01-29T00:20:32.440Z,1007.2106464839999
2023-01-29T00:21:32.438Z,1007.0074637559999
2023-01-29T00:22:32.447Z,1006.838144816
2023-01-29T00:23:32.405Z,1007.10905512
2023-01-29T00:24:32.456Z,1007.2106464839999
2023-01-29T00:25:32.437Z,1007.0074637559999
2023-01-29T00:26:32.453Z,1007.2106464839999
2023-01-29T00:27:32.432Z,1007.10905512
2023-01-29T00:28:32.439Z,1007.2106464839999
2023-01-29T00:29:32.448Z,1007.10905512
2023-01-29T00:30:33.611Z,1007.0074637559999
2023-01-29T00:31:32.553Z,1007.0074637559999
2023-01-29T00:32:32.422Z,1007.2106464839999
2023-01-29T00:33:32.476Z,1007.10905512
2023-01-29T00:34:32.429Z,1007.0074637559999
2023-01-29T00:35:32.514Z,1007.2106464839999
2023-01-29T00:36:32.418Z,1007.2106464839999
2023-01-29T00:37:32.450Z,1007.10905512
2023-01-29T00:38:32.490Z,1007.10905512
2023-01-29T00:39:46.784Z,1007.2106464839999
2023-01-29T00:40:32.460Z,1007.2106464839999
2023-01-29T00:41:32.445Z,1007.0074637559999
2023-01-29T00:42:32.444Z,1007.2106464839999
2023-01-29T00:43:32.431Z,1007.2106464839999
2023-01-29T00:44:32.459Z,1007.3122378479999
2023-01-29T00:45:32.475Z,1007.5154205759999
2023-01-29T00:46:32.525Z,1007.2106464839999
2023-01-29T00:47:32.526Z,1007.2106464839999
2023-01-29T00:48:32.426Z,1007.2106464839999
2023-01-29T00:49:32.471Z,1007.10905512
2023-01-29T00:50:32.438Z,1007.3122378479999
2023-01-29T00:51:32.425Z,1007.10905512
2023-01-29T00:52:32.419Z,1007.10905512
2023-01-29T00:53:32.463Z,1007.3122378479999
2023-01-29T00:54:33.188Z,1007.3122378479999
2023-01-29T00:55:32.430Z,1007.413829212
2023-01-29T00:56:32.436Z,1007.10905512
2023-01-29T00:57:32.455Z,1007.2106464839999
2023-01-29T00:58:32.443Z,1007.413829212
2023-01-29T00:59:32.413Z,1007.2106464839999
2023-01-29T01:00:32.463Z,1007.10905512
2023-01-29T01:01:32.450Z,1007.2106464839999
2023-01-29T01:02:33.571Z,1007.2106464839999
2023-01-29T01:03:32.442Z,1007.10905512
2023-01-29T01:04:34.805Z,1006.9397361800001
2023-01-29T01:05:32.482Z,1007.2106464839999
2023-01-29T01:06:32.697Z,1006.9397361800001
2023-01-29T01:07:32.455Z,1007.10905512
2023-01-29T01:08:32.431Z,1007.10905512
2023-01-29T01:09:32.424Z,1007.0074637559999
2023-01-29T01:10:32.468Z,1007.10905512
2023-01-29T01:11:32.429Z,1007.10905512
2023-01-29T01:12:32.434Z,1006.838144816
2023-01-29T01:13:32.459Z,1007.2106464839999
2023-01-29T01:14:32.407Z,1007.2106464839999
2023-01-29T01:15:32.424Z,1007.0074637559999
2023-01-29T01:16:32.533Z,1007.10905512
2023-01-29T01:17:32.454Z,1007.0074637559999
2023-01-29T01:18:32.448Z,1007.0074637559999
2023-01-29T01:19:32.425Z,1007.10905512
2023-01-29T01:20:32.437Z,1006.9397361800001
2023-01-29T01:21:32.430Z,1006.838144816
2023-01-29T01:22:32.445Z,1006.838144816
2023-01-29T01:23:32.398Z,1007.10905512
2023-01-29T01:24:32.526Z,1007.0074637559999
2023-01-29T01:25:32.468Z,1006.838144816
2023-01-29T01:26:32.419Z,1006.9397361800001
2023-01-29T01:27:32.426Z,1007.0074637559999
2023-01-29T01:28:32.498Z,1007.0074637559999
2023-01-29T01:29:32.428Z,1006.9397361800001
2023-01-29T01:30:32.465Z,1006.736553452
2023-01-29T01:31:32.535Z,1006.9397361800001
2023-01-29T01:32:32.439Z,1007.0074637559999
2023-01-29T01:33:32.405Z,1006.9397361800001
2023-01-29T01:34:32.655Z,1006.6349620879998
2023-01-29T01:35:32.408Z,1006.736553452
2023-01-29T01:36:32.460Z,1006.9397361800001
2023-01-29T01:37:32.428Z,1006.736553452
2023-01-29T01:38:32.447Z,1006.838144816
2023-01-29T01:39:32.421Z,1006.838144816
2023-01-29T01:40:32.586Z,1006.736553452
2023-01-29T01:41:32.557Z,1006.736553452
2023-01-29T01:42:32.583Z,1006.6349620879998
2023-01-29T01:43:32.537Z,1006.736553452
2023-01-29T01:44:32.597Z,1006.533370724
2023-01-29T01:45:32.656Z,1006.6349620879998
2023-01-29T01:46:32.494Z,1006.736553452
2023-01-29T01:47:32.588Z,1006.736553452
2023-01-29T01:48:32.594Z,1006.838144816
2023-01-29T01:49:32.611Z,1006.6349620879998
2023-01-29T01:50:32.564Z,1006.6349620879998
2023-01-29T01:51:32.576Z,1006.736553452
2023-01-29T01:52:32.558Z,1006.533370724
2023-01-29T01:53:32.577Z,1006.838144816
2023-01-29T01:54:32.606Z,1006.3301879959998
2023-01-29T01:55:32.508Z,1006.736553452
2023-01-29T01:56:32.534Z,1006.533370724
2023-01-29T01:57:32.395Z,1006.533370724
2023-01-29T01:58:32.418Z,1006.533370724
2023-01-29T01:59:32.409Z,1006.6349620879998
2023-01-29T02:00:32.450Z,1006.533370724
2023-01-29T02:01:32.423Z,1006.533370724
2023-01-29T02:02:32.447Z,1006.3301879959998
2023-01-29T02:03:32.376Z,1006.3301879959998
2023-01-29T02:04:32.445Z,1006.228596632
2023-01-29T02:05:32.404Z,1006.3301879959998
2023-01-29T02:06:32.459Z,1006.43177936
2023-01-29T02:07:32.395Z,1006.43177936
2023-01-29T02:08:32.434Z,1006.228596632
2023-01-29T02:09:32.387Z,1006.533370724
2023-01-29T02:10:32.418Z,1006.228596632
2023-01-29T02:11:32.422Z,1006.3301879959998
2023-01-29T02:12:32.428Z,1006.3301879959998
2023-01-29T02:13:32.426Z,1006.43177936
2023-01-29T02:14:39.690Z,1005.92382254
2023-01-29T02:15:32.410Z,1006.3301879959998
2023-01-29T02:16:32.435Z,1006.0254139039998
2023-01-29T02:17:32.513Z,1006.127005268
2023-01-29T02:18:32.410Z,1006.127005268
2023-01-29T02:19:32.430Z,1006.228596632
2023-01-29T02:20:32.407Z,1006.127005268
2023-01-29T02:21:32.431Z,1006.0254139039998
2023-01-29T02:22:48.226Z,1006.127005268
2023-01-29T02:23:32.451Z,1005.92382254
2023-01-29T02:24:32.429Z,1006.0254139039998
2023-01-29T02:25:32.448Z,1006.127005268
2023-01-29T02:26:35.652Z,1006.127005268
2023-01-29T02:27:32.402Z,1006.127005268
2023-01-29T02:28:32.392Z,1005.92382254
2023-01-29T02:29:32.435Z,1006.228596632
2023-01-29T02:30:32.413Z,1006.0254139039998
2023-01-29T02:31:32.440Z,1006.228596632
2023-01-29T02:32:32.417Z,1006.0254139039998
2023-01-29T02:33:32.491Z,1006.3301879959998
2023-01-29T02:34:32.436Z,1006.127005268
2023-01-29T02:35:32.395Z,1006.0254139039998
2023-01-29T02:36:32.407Z,1005.92382254
2023-01-29T02:37:32.428Z,1005.92382254
2023-01-29T02:38:46.953Z,1005.8222311760001
2023-01-29T02:39:32.398Z,1005.8222311760001
2023-01-29T02:40:32.406Z,1005.92382254
2023-01-29T02:41:32.430Z,1005.8222311760001
2023-01-29T02:42:32.425Z,1005.8222311760001
2023-01-29T02:43:32.426Z,1005.8222311760001
2023-01-29T02:44:32.429Z,1005.92382254
2023-01-29T02:45:32.476Z,1005.8222311760001
2023-01-29T02:46:32.395Z,1005.6190484480001
2023-01-29T02:47:32.394Z,1005.7206398120001
2023-01-29T02:48:32.442Z,1005.5174570840001
2023-01-29T02:49:32.414Z,1005.7206398120001
2023-01-29T02:50:32.409Z,1005.6190484480001
2023-01-29T02:51:32.412Z,1005.8222311760001
2023-01-29T02:52:32.408Z,1005.8222311760001
2023-01-29T02:53:32.418Z,1005.7206398120001
2023-01-29T02:54:32.425Z,1005.5174570840001
2023-01-29T02:55:32.432Z,1005.314274356
2023-01-29T02:56:32.393Z,1005.41586572
2023-01-29T02:57:32.417Z,1005.5174570840001
2023-01-29T02:58:32.424Z,1005.5174570840001
2023-01-29T02:59:32.407Z,1005.41586572
2023-01-29T03:00:32.421Z,1005.5174570840001
2023-01-29T03:01:32.423Z,1005.7206398120001
2023-01-29T03:02:48.225Z,1005.41586572
2023-01-29T03:03:32.421Z,1005.1110916279999
2023-01-29T03:04:32.387Z,1005.41586572
2023-01-29T03:05:32.426Z,1005.314274356
2023-01-29T03:06:32.446Z,1005.314274356
2023-01-29T03:07:32.409Z,1005.41586572
2023-01-29T03:08:32.417Z,1005.314274356
2023-01-29T03:09:32.504Z,1005.314274356
2023-01-29T03:10:33.640Z,1005.314274356
2023-01-29T03:11:32.405Z,1005.212682992
2023-01-29T03:12:32.489Z,1005.212682992
2023-01-29T03:13:32.481Z,1005.314274356
2023-01-29T03:14:32.417Z,1005.41586572
2023-01-29T03:15:32.477Z,1005.41586572
2023-01-29T03:16:32.468Z,1005.212682992
2023-01-29T03:17:32.514Z,1005.212682992
2023-01-29T03:18:32.545Z,1005.212682992
2023-01-29T03:19:32.464Z,1005.1110916279999
2023-01-29T03:20:32.497Z,1005.1110916279999
2023-01-29T03:21:32.470Z,1005.212682992
2023-01-29T03:22:32.387Z,1005.1110916279999
2023-01-29T03:23:32.419Z,1005.212682992
2023-01-29T03:24:32.489Z,1005.212682992
2023-01-29T03:25:33.763Z,1005.41586572
2023-01-29T03:26:32.505Z,1005.314274356
2023-01-29T03:27:32.634Z,1005.212682992
2023-01-29T03:28:32.459Z,1005.314274356
2023-01-29T03:29:33.595Z,1005.1110916279999
2023-01-29T03:30:32.401Z,1005.314274356
2023-01-29T03:31:32.664Z,1005.314274356
2023-01-29T03:32:32.463Z,1005.314274356
2023-01-29T03:33:32.424Z,1005.212682992
2023-01-29T03:34:32.581Z,1005.1110916279999
2023-01-29T03:35:32.593Z,1005.212682992
2023-01-29T03:36:32.416Z,1005.1110916279999
2023-01-29T03:37:32.558Z,1005.1110916279999
2023-01-29T03:38:32.540Z,1005.1110916279999
2023-01-29T03:39:32.521Z,1005.1110916279999
2023-01-29T03:40:32.570Z,1005.0095002639999
2023-01-29T03:41:32.504Z,1005.1110916279999
2023-01-29T03:42:32.454Z,1005.212682992
2023-01-29T03:43:32.534Z,1005.314274356
2023-01-29T03:44:32.459Z,1005.1110916279999
2023-01-29T03:45:32.545Z,1005.1110916279999
2023-01-29T03:46:32.491Z,1005.212682992
2023-01-29T03:47:32.527Z,1005.212682992
2023-01-29T03:48:32.585Z,1005.212682992
2023-01-29T03:49:32.415Z,1005.314274356
2023-01-29T03:50:32.404Z,1005.1110916279999
2023-01-29T03:51:32.555Z,1004.9079089
2023-01-29T03:52:32.389Z,1005.212682992
2023-01-29T03:53:32.455Z,1005.1110916279999
2023-01-29T03:54:32.398Z,1005.0095002639999
2023-01-29T03:55:32.421Z,1005.0095002639999
2023-01-29T03:56:32.400Z,1005.0095002639999
2023-01-29T03:57:32.409Z,1004.9079089
2023-01-29T03:58:32.432Z,1004.9079089
2023-01-29T03:59:32.415Z,1004.9079089
2023-01-29T04:00:32.415Z,1005.0095002639999
2023-01-29T04:01:32.459Z,1005.0095002639999
2023-01-29T04:02:32.365Z,1005.1110916279999
2023-01-29T04:03:32.415Z,1004.9079089
2023-01-29T04:04:32.400Z,1004.9079089
2023-01-29T04:05:32.396Z,1005.1110916279999
2023-01-29T04:06:32.393Z,1005.0095002639999
2023-01-29T04:07:32.415Z,1005.314274356
2023-01-29T04:08:32.374Z,1004.9079089
2023-01-29T04:09:32.408Z,1004.9079089
2023-01-29T04:10:32.411Z,1005.1110916279999
2023-01-29T04:11:32.424Z,1004.9079089
2023-01-29T04:12:32.391Z,1004.8401813239999
2023-01-29T04:13:32.404Z,1004.8401813239999
2023-01-29T04:14:32.395Z,1004.9079089
2023-01-29T04:15:32.403Z,1004.9079089
2023-01-29T04:16:32.438Z,1005.0095002639999
2023-01-29T04:17:32.414Z,1005.0095002639999
2023-01-29T04:18:32.380Z,1005.1110916279999
2023-01-29T04:19:32.403Z,1004.9079089
2023-01-29T04:20:32.427Z,1004.7385899600001
2023-01-29T04:21:32.410Z,1004.8401813239999
2023-01-29T04:22:32.391Z,1004.8401813239999
2023-01-29T04:23:32.405Z,1004.8401813239999
2023-01-29T04:24:32.435Z,1004.9079089
2023-01-29T04:25:32.467Z,1004.8401813239999
2023-01-29T04:26:32.399Z,1004.9079089
2023-01-29T04:27:32.423Z,1004.535407232
2023-01-29T04:28:32.384Z,1004.8401813239999
2023-01-29T04:29:32.434Z,1004.9079089
2023-01-29T04:30:32.384Z,1005.0095002639999
2023-01-29T04:31:32.753Z,1004.8401813239999
2023-01-29T04:32:32.435Z,1004.9079089
2023-01-29T04:33:32.414Z,1004.7385899600001
2023-01-29T04:34:32.431Z,1004.8401813239999
2023-01-29T04:35:32.418Z,1004.7385899600001
2023-01-29T04:36:32.405Z,1004.7385899600001
2023-01-29T04:37:32.418Z,1004.7385899600001
2023-01-29T04:38:32.395Z,1004.636998596
2023-01-29T04:39:32.422Z,1004.8401813239999
2023-01-29T04:40:32.370Z,1004.4338158680001
2023-01-29T04:41:32.453Z,1004.636998596
2023-01-29T04:42:32.431Z,1004.535407232
2023-01-29T04:43:32.409Z,1004.636998596
2023-01-29T04:44:32.399Z,1004.7385899600001
2023-01-29T04:45:32.421Z,1004.332224504
2023-01-29T04:46:32.389Z,1004.4338158680001
2023-01-29T04:47:32.500Z,1004.636998596
2023-01-29T04:48:32.510Z,1004.636998596
2023-01-29T04:49:32.387Z,1004.4338158680001
2023-01-29T04:50:32.394Z,1004.535407232
2023-01-29T04:51:32.416Z,1004.4338158680001
2023-01-29T04:52:32.369Z,1004.332224504
2023-01-29T04:53:32.424Z,1004.636998596
2023-01-29T04:54:32.414Z,1004.4338158680001
2023-01-29T04:55:32.425Z,1004.636998596
2023-01-29T04:56:32.385Z,1004.332224504
2023-01-29T04:57:32.394Z,1004.4338158680001
2023-01-29T04:58:32.411Z,1004.23063314
2023-01-29T04:59:32.449Z,1004.23063314
2023-01-29T05:00:32.404Z,1004.1290417760001
2023-01-29T05:01:32.514Z,1004.23063314
2023-01-29T05:02:32.441Z,1004.1290417760001
2023-01-29T05:03:32.439Z,1004.332224504
2023-01-29T05:04:32.381Z,1004.1290417760001
2023-01-29T05:05:32.425Z,1004.332224504
2023-01-29T05:06:32.406Z,1004.4338158680001
2023-01-29T05:07:32.412Z,1004.027450412
2023-01-29T05:08:32.408Z,1004.23063314
2023-01-29T05:09:32.675Z,1004.027450412
2023-01-29T05:10:33.235Z,1004.1290417760001
2023-01-29T05:11:34.243Z,1004.1290417760001
2023-01-29T05:12:32.379Z,1004.23063314
2023-01-29T05:13:32.443Z,1004.027450412
2023-01-29T05:14:32.378Z,1004.027450412
2023-01-29T05:15:32.408Z,1004.027450412
2023-01-29T05:16:32.472Z,1004.027450412
2023-01-29T05:17:32.463Z,1003.8242676840001
2023-01-29T05:18:32.368Z,1003.8242676840001
2023-01-29T05:19:32.396Z,1003.8242676840001
2023-01-29T05:20:32.392Z,1003.72267632
2023-01-29T05:21:32.438Z,1003.621084956
2023-01-29T05:22:32.382Z,1003.621084956
2023-01-29T05:23:32.399Z,1003.5194935919999
2023-01-29T05:24:32.398Z,1003.5194935919999
2023-01-29T05:25:32.963Z,1003.72267632
2023-01-29T05:26:32.384Z,1003.72267632
2023-01-29T05:27:32.420Z,1003.5194935919999
2023-01-29T05:28:32.405Z,1003.5194935919999
2023-01-29T05:29:32.399Z,1003.316310864
2023-01-29T05:30:32.488Z,1003.5194935919999
2023-01-29T05:31:32.504Z,1003.417902228
2023-01-29T05:32:32.396Z,1003.2147194999999
2023-01-29T05:33:32.393Z,1003.5194935919999
2023-01-29T05:34:32.381Z,1003.2147194999999
2023-01-29T05:35:32.411Z,1003.5194935919999
2023-01-29T05:36:32.389Z,1003.2147194999999
2023-01-29T05:37:32.417Z,1003.316310864
2023-01-29T05:38:32.400Z,1003.316310864
2023-01-29T05:39:32.400Z,1003.113128136
2023-01-29T05:40:32.399Z,1003.417902228
2023-01-29T05:41:32.407Z,1003.2147194999999
2023-01-29T05:42:32.402Z,1003.2147194999999
2023-01-29T05:43:32.408Z,1003.2147194999999
2023-01-29T05:44:32.384Z,1003.316310864
2023-01-29T05:45:32.405Z,1003.2147194999999
2023-01-29T05:46:32.421Z,1003.2147194999999
2023-01-29T05:47:32.416Z,1003.011536772
2023-01-29T05:48:32.393Z,1003.011536772
2023-01-29T05:49:32.396Z,1003.113128136
2023-01-29T05:50:32.401Z,1003.2147194999999
2023-01-29T05:51:32.449Z,1003.011536772
2023-01-29T05:52:32.436Z,1003.011536772
2023-01-29T05:53:32.440Z,1003.011536772
2023-01-29T05:54:32.404Z,1003.2147194999999
2023-01-29T05:55:32.382Z,1002.9099454079999
2023-01-29T05:56:32.403Z,1002.808354044
2023-01-29T05:57:32.402Z,1003.113128136
2023-01-29T05:58:32.405Z,1003.113128136
2023-01-29T05:59:32.394Z,1003.316310864
2023-01-29T06:00:32.371Z,1002.9099454079999
2023-01-29T06:01:32.507Z,1003.2147194999999
2023-01-29T06:02:32.450Z,1002.70676268
2023-01-29T06:03:32.418Z,1002.9099454079999
2023-01-29T06:04:32.437Z,1003.113128136
2023-01-29T06:05:32.426Z,1002.9099454079999
2023-01-29T06:06:32.404Z,1002.808354044
2023-01-29T06:07:32.421Z,1002.70676268
2023-01-29T06:08:32.410Z,1002.808354044
2023-01-29T06:09:32.386Z,1002.9099454079999
2023-01-29T06:10:32.371Z,1002.6390351040001
2023-01-29T06:11:32.411Z,1002.6390351040001
2023-01-29T06:12:32.376Z,1002.9099454079999
2023-01-29T06:13:32.379Z,1002.808354044
2023-01-29T06:14:32.469Z,1002.808354044
2023-01-29T06:15:32.403Z,1002.70676268
2023-01-29T06:16:32.516Z,1002.70676268
2023-01-29T06:17:32.393Z,1002.70676268
2023-01-29T06:18:32.437Z,1003.011536772
2023-01-29T06:19:32.400Z,1003.011536772
2023-01-29T06:20:32.374Z,1002.6390351040001
2023-01-29T06:21:32.390Z,1002.808354044
2023-01-29T06:22:32.403Z,1002.808354044
2023-01-29T06:23:32.409Z,1002.808354044
2023-01-29T06:24:32.417Z,1002.9099454079999
2023-01-29T06:25:32.517Z,1002.808354044
2023-01-29T06:26:32.408Z,1002.9099454079999
2023-01-29T06:27:32.428Z,1003.011536772
2023-01-29T06:28:32.401Z,1002.9099454079999
2023-01-29T06:29:32.402Z,1002.9099454079999
2023-01-29T06:30:32.519Z,1003.011536772
2023-01-29T06:31:38.725Z,1003.2147194999999
2023-01-29T06:32:32.411Z,1003.011536772
2023-01-29T06:33:48.206Z,1003.113128136
2023-01-29T06:34:32.414Z,1002.9099454079999
2023-01-29T06:35:32.391Z,1002.808354044
2023-01-29T06:36:32.374Z,1003.113128136
2023-01-29T06:37:32.411Z,1003.011536772
2023-01-29T06:38:32.409Z,1002.9099454079999
2023-01-29T06:39:32.436Z,1002.808354044
2023-01-29T06:40:32.398Z,1003.011536772
2023-01-29T06:41:33.403Z,1002.808354044
2023-01-29T06:42:32.429Z,1002.9099454079999
2023-01-29T06:43:32.407Z,1002.9099454079999
2023-01-29T06:44:32.414Z,1002.9099454079999
2023-01-29T06:45:32.376Z,1002.808354044
2023-01-29T06:46:32.501Z,1002.808354044
2023-01-29T06:47:32.352Z,1002.808354044
2023-01-29T06:48:32.386Z,1002.808354044
2023-01-29T06:49:32.401Z,1002.6390351040001
2023-01-29T06:50:32.446Z,1002.808354044
2023-01-29T06:51:32.381Z,1002.6390351040001
2023-01-29T06:52:32.383Z,1002.5374437400001
2023-01-29T06:53:32.399Z,1002.808354044
2023-01-29T06:54:32.426Z,1002.6390351040001
2023-01-29T06:55:32.383Z,1002.9099454079999
2023-01-29T06:56:32.358Z,1002.6390351040001
2023-01-29T06:57:32.419Z,1002.70676268
2023-01-29T06:58:32.402Z,1002.6390351040001
2023-01-29T06:59:32.405Z,1002.5374437400001
2023-01-29T07:00:32.486Z,1002.6390351040001
2023-01-29T07:01:36.470Z,1002.6390351040001
2023-01-29T07:02:32.473Z,1002.5374437400001
2023-01-29T07:03:32.417Z,1002.5374437400001
2023-01-29T07:04:32.381Z,1002.5374437400001
2023-01-29T07:05:33.465Z,1002.435852376
2023-01-29T07:06:32.422Z,1002.435852376
2023-01-29T07:07:32.381Z,1002.232669648
2023-01-29T07:08:32.416Z,1002.435852376
2023-01-29T07:09:35.572Z,1002.3342610120001
2023-01-29T07:10:32.398Z,1002.3342610120001
2023-01-29T07:11:32.408Z,1002.3342610120001
2023-01-29T07:12:32.414Z,1002.3342610120001
2023-01-29T07:13:32.393Z,1002.435852376
2023-01-29T07:14:32.405Z,1002.232669648
2023-01-29T07:15:32.397Z,1002.131078284
2023-01-29T07:16:32.448Z,1002.131078284
2023-01-29T07:17:32.405Z,1002.232669648
2023-01-29T07:18:32.448Z,1002.131078284
2023-01-29T07:19:32.352Z,1002.131078284
2023-01-29T07:20:32.407Z,1002.131078284
2023-01-29T07:21:32.416Z,1002.131078284
2023-01-29T07:22:32.374Z,1001.927895556
2023-01-29T07:23:32.907Z,1001.927895556
2023-01-29T07:24:32.489Z,1002.0294869200001
2023-01-29T07:25:32.432Z,1002.0294869200001
2023-01-29T07:26:32.377Z,1001.927895556
2023-01-29T07:27:35.445Z,1001.826304192
2023-01-29T07:28:32.365Z,1002.0294869200001
2023-01-29T07:29:32.404Z,1002.232669648
2023-01-29T07:30:32.398Z,1002.131078284
2023-01-29T07:31:32.482Z,1002.232669648
2023-01-29T07:32:32.375Z,1001.724712828
2023-01-29T07:33:32.436Z,1001.927895556
2023-01-29T07:34:32.413Z,1001.927895556
2023-01-29T07:35:32.421Z,1001.927895556
2023-01-29T07:36:32.405Z,1002.0294869200001
2023-01-29T07:37:32.455Z,1001.826304192
2023-01-29T07:38:32.396Z,1002.0294869200001
2023-01-29T07:39:32.390Z,1001.927895556
2023-01-29T07:40:32.398Z,1001.826304192
2023-01-29T07:41:32.408Z,1001.927895556
2023-01-29T07:42:32.373Z,1002.0294869200001
2023-01-29T07:43:32.400Z,1002.0294869200001
2023-01-29T07:44:32.352Z,1001.826304192
2023-01-29T07:45:32.536Z,1002.0294869200001
2023-01-29T07:46:32.361Z,1001.927895556
2023-01-29T07:47:33.745Z,1001.826304192
2023-01-29T07:48:32.370Z,1001.826304192
2023-01-29T07:49:32.397Z,1001.826304192
2023-01-29T07:50:32.379Z,1002.3342610120001
2023-01-29T07:51:32.425Z,1001.927895556
2023-01-29T07:52:32.391Z,1002.131078284
2023-01-29T07:53:32.383Z,1001.826304192
2023-01-29T07:54:32.395Z,1002.0294869200001
2023-01-29T07:55:35.424Z,1002.131078284
2023-01-29T07:56:32.391Z,1001.826304192
2023-01-29T07:57:32.389Z,1001.724712828
2023-01-29T07:58:32.789Z,1001.927895556
2023-01-29T07:59:48.110Z,1001.724712828
2023-01-29T08:00:32.426Z,1001.826304192
2023-01-29T08:01:32.427Z,1001.826304192
2023-01-29T08:02:32.515Z,1001.927895556
2023-01-29T08:03:32.398Z,1001.623121464
2023-01-29T08:04:32.414Z,1001.826304192
2023-01-29T08:05:32.381Z,1001.5215301
2023-01-29T08:06:32.374Z,1001.623121464
2023-01-29T08:07:32.451Z,1001.5215301
2023-01-29T08:08:32.361Z,1001.419938736
2023-01-29T08:09:32.412Z,1001.419938736
2023-01-29T08:10:32.357Z,1001.1151646439998
2023-01-29T08:11:32.392Z,1001.216756008
2023-01-29T08:12:32.399Z,1001.216756008
2023-01-29T08:13:32.424Z,1001.318347372
2023-01-29T08:14:32.375Z,1001.419938736
2023-01-29T08:15:32.454Z,1001.1151646439998
2023-01-29T08:16:32.447Z,1001.419938736
2023-01-29T08:17:32.389Z,1001.216756008
2023-01-29T08:18:32.364Z,1001.216756008
2023-01-29T08:19:32.375Z,1000.911981916
2023-01-29T08:20:32.356Z,1001.1151646439998
2023-01-29T08:21:32.411Z,1001.1151646439998
2023-01-29T08:22:32.403Z,1001.01357328
2023-01-29T08:23:32.366Z,1001.01357328
2023-01-29T08:24:47.399Z,1001.01357328
2023-01-29T08:25:32.520Z,1000.911981916
2023-01-29T08:26:32.409Z,1000.911981916
2023-01-29T08:27:32.372Z,1000.911981916
2023-01-29T08:28:32.370Z,1000.8103905519998
2023-01-29T08:29:32.399Z,1000.911981916
2023-01-29T08:30:32.448Z,1000.911981916
2023-01-29T08:31:32.501Z,1000.8103905519998
2023-01-29T08:32:32.361Z,1000.6072078239999
2023-01-29T08:33:39.147Z,1000.539480248
2023-01-29T08:34:32.389Z,1000.708799188
2023-01-29T08:35:32.378Z,1000.911981916
2023-01-29T08:36:32.440Z,1000.708799188
2023-01-29T08:37:32.403Z,1000.6072078239999
2023-01-29T08:38:32.415Z,1000.708799188
2023-01-29T08:39:33.694Z,1000.708799188
2023-01-29T08:40:32.395Z,1000.8103905519998
2023-01-29T08:41:32.382Z,1000.708799188
2023-01-29T08:42:32.387Z,1000.911981916
2023-01-29T08:43:32.355Z,1000.8103905519998
2023-01-29T08:44:32.358Z,1000.911981916
2023-01-29T08:45:32.373Z,1000.708799188
2023-01-29T08:46:32.403Z,1000.8103905519998
2023-01-29T08:47:32.376Z,1001.01357328
2023-01-29T08:48:32.340Z,1000.708799188
2023-01-29T08:49:32.412Z,1000.8103905519998
2023-01-29T08:50:32.428Z,1001.01357328
2023-01-29T08:51:32.414Z,1000.8103905519998
2023-01-29T08:52:32.343Z,1000.708799188
2023-01-29T08:53:32.434Z,1000.6072078239999
2023-01-29T08:54:32.536Z,1000.708799188
2023-01-29T08:55:32.376Z,1000.708799188
2023-01-29T08:56:32.359Z,1000.539480248
2023-01-29T08:57:32.507Z,1000.437888884
2023-01-29T08:58:32.408Z,1000.437888884
2023-01-29T08:59:32.370Z,1000.2347061559999
2023-01-29T09:00:32.388Z,1000.539480248
2023-01-29T09:01:32.424Z,1000.437888884
2023-01-29T09:02:32.449Z,1000.539480248
2023-01-29T09:03:32.347Z,1000.539480248
2023-01-29T09:04:32.363Z,1000.437888884
2023-01-29T09:05:32.365Z,1000.6072078239999
2023-01-29T09:06:32.387Z,1000.437888884
2023-01-29T09:07:32.351Z,1000.437888884
2023-01-29T09:08:32.373Z,1000.6072078239999
2023-01-29T09:09:32.428Z,1000.539480248
2023-01-29T09:10:32.363Z,1000.3362975199999
2023-01-29T09:11:32.338Z,1000.539480248
2023-01-29T09:12:32.357Z,1000.437888884
2023-01-29T09:13:32.409Z,1000.3362975199999
2023-01-29T09:14:32.380Z,1000.539480248
2023-01-29T09:15:32.388Z,1000.539480248
2023-01-29T09:16:32.461Z,1000.437888884
2023-01-29T09:17:32.404Z,1000.133114792
2023-01-29T09:18:32.363Z,1000.3362975199999
2023-01-29T09:19:32.383Z,1000.3362975199999
2023-01-29T09:20:32.389Z,1000.133114792
2023-01-29T09:21:32.371Z,1000.0315234279999
2023-01-29T09:22:32.357Z,999.8283407
2023-01-29T09:23:32.351Z,999.9299320639999
2023-01-29T09:24:32.398Z,1000.133114792
2023-01-29T09:25:33.396Z,1000.0315234279999
2023-01-29T09:26:32.460Z,1000.3362975199999
2023-01-29T09:27:32.371Z,1000.133114792
2023-01-29T09:28:32.382Z,999.9299320639999
2023-01-29T09:29:35.448Z,1000.133114792
2023-01-29T09:30:32.441Z,1000.133114792
2023-01-29T09:31:32.480Z,1000.133114792
2023-01-29T09:32:53.692Z,1000.539480248
2023-01-29T09:33:32.497Z,1000.437888884
2023-01-29T09:34:32.390Z,1000.2347061559999
2023-01-29T09:35:32.372Z,1000.133114792